Weather at Arusha Airport

Public forecast

Using degrees Celsius for public forecast. Weather courtesy of forecast.io.

Current aviation weather report (METAR) for Arusha Airport

2024/05/26 14:00 (retrieved 50 minutes ago)

HTAR 261400Z 16003KT 9999 SCT027 22/15 Q1022 NOSIG

Aviation forecast (TAF) for Arusha Airport

2024/05/26 12:57 (retrieved 2 hours ago)

TAF TAF HTAR 261100Z 2612/2712 12005KT 9999 BKN028 BECMG 2616/2618 SCT024